sensor_id;sensor_type;location;lat;lon;timestamp;temperature;humidity
74368;DHT22;64991;41.090;-8.118;2023-05-10T00:01:26;22.20;82.20
74368;DHT22;64991;41.090;-8.118;2023-05-10T00:06:30;22.20;82.00
74368;DHT22;64991;41.090;-8.118;2023-05-10T00:11:34;22.20;81.90
74368;DHT22;64991;41.090;-8.118;2023-05-10T00:16:37;22.10;82.00
74368;DHT22;64991;41.090;-8.118;2023-05-10T00:21:42;22.20;81.80
74368;DHT22;64991;41.090;-8.118;2023-05-10T00:26:46;22.20;81.90
74368;DHT22;64991;41.090;-8.118;2023-05-10T00:31:50;22.10;81.90
74368;DHT22;64991;41.090;-8.118;2023-05-10T00:36:54;22.10;81.80
74368;DHT22;64991;41.090;-8.118;2023-05-10T00:41:58;22.10;81.60
74368;DHT22;64991;41.090;-8.118;2023-05-10T00:47:02;22.10;81.50
74368;DHT22;64991;41.090;-8.118;2023-05-10T00:52:07;22.20;81.60
74368;DHT22;64991;41.090;-8.118;2023-05-10T00:57:11;22.10;81.60
74368;DHT22;64991;41.090;-8.118;2023-05-10T01:02:14;22.10;81.40
74368;DHT22;64991;41.090;-8.118;2023-05-10T01:07:19;22.20;81.40
74368;DHT22;64991;41.090;-8.118;2023-05-10T01:12:23;22.10;81.60
74368;DHT22;64991;41.090;-8.118;2023-05-10T01:17:27;22.10;81.30
74368;DHT22;64991;41.090;-8.118;2023-05-10T01:22:38;22.10;81.40
74368;DHT22;64991;41.090;-8.118;2023-05-10T01:33:43;22.10;81.10
74368;DHT22;64991;41.090;-8.118;2023-05-10T01:38:51;22.10;81.00
74368;DHT22;64991;41.090;-8.118;2023-05-10T01:44:00;22.10;80.90
74368;DHT22;64991;41.090;-8.118;2023-05-10T01:49:08;22.10;80.90
74368;DHT22;64991;41.090;-8.118;2023-05-10T01:54:13;22.10;80.80
74368;DHT22;64991;41.090;-8.118;2023-05-10T01:59:18;22.10;80.70
74368;DHT22;64991;41.090;-8.118;2023-05-10T02:04:23;22.10;80.90
74368;DHT22;64991;41.090;-8.118;2023-05-10T02:09:28;22.00;80.90
74368;DHT22;64991;41.090;-8.118;2023-05-10T02:14:34;22.00;80.70
74368;DHT22;64991;41.090;-8.118;2023-05-10T02:19:40;22.00;80.80
74368;DHT22;64991;41.090;-8.118;2023-05-10T02:24:44;22.00;80.80
74368;DHT22;64991;41.090;-8.118;2023-05-10T02:29:49;22.10;80.50
74368;DHT22;64991;41.090;-8.118;2023-05-10T02:34:55;22.00;80.60
74368;DHT22;64991;41.090;-8.118;2023-05-10T02:39:58;22.00;80.60
74368;DHT22;64991;41.090;-8.118;2023-05-10T02:45:07;21.90;80.60
74368;DHT22;64991;41.090;-8.118;2023-05-10T02:50:13;22.00;80.50
74368;DHT22;64991;41.090;-8.118;2023-05-10T02:55:18;22.00;80.40
74368;DHT22;64991;41.090;-8.118;2023-05-10T03:00:23;21.90;80.40
74368;DHT22;64991;41.090;-8.118;2023-05-10T03:05:29;21.90;80.40
74368;DHT22;64991;41.090;-8.118;2023-05-10T03:10:32;22.00;80.40
74368;DHT22;64991;41.090;-8.118;2023-05-10T03:15:37;22.00;80.30
74368;DHT22;64991;41.090;-8.118;2023-05-10T03:20:47;22.00;80.20
74368;DHT22;64991;41.090;-8.118;2023-05-10T03:25:52;21.90;80.40
74368;DHT22;64991;41.090;-8.118;2023-05-10T03:30:55;22.00;80.10
74368;DHT22;64991;41.090;-8.118;2023-05-10T03:36:01;21.90;80.10
74368;DHT22;64991;41.090;-8.118;2023-05-10T03:41:04;21.90;80.20
74368;DHT22;64991;41.090;-8.118;2023-05-10T03:46:08;21.90;80.40
74368;DHT22;64991;41.090;-8.118;2023-05-10T03:51:13;21.90;80.50
74368;DHT22;64991;41.090;-8.118;2023-05-10T03:56:16;21.90;80.30
74368;DHT22;64991;41.090;-8.118;2023-05-10T04:01:20;21.90;80.20
74368;DHT22;64991;41.090;-8.118;2023-05-10T04:06:25;21.90;80.10
74368;DHT22;64991;41.090;-8.118;2023-05-10T04:11:28;21.90;80.10
74368;DHT22;64991;41.090;-8.118;2023-05-10T04:16:32;21.80;79.90
74368;DHT22;64991;41.090;-8.118;2023-05-10T04:21:37;21.90;80.20
74368;DHT22;64991;41.090;-8.118;2023-05-10T04:26:40;21.80;80.00
74368;DHT22;64991;41.090;-8.118;2023-05-10T04:31:44;21.80;79.70
74368;DHT22;64991;41.090;-8.118;2023-05-10T04:36:49;21.80;79.90
74368;DHT22;64991;41.090;-8.118;2023-05-10T04:41:52;21.80;79.90
74368;DHT22;64991;41.090;-8.118;2023-05-10T04:46:56;21.90;79.90
74368;DHT22;64991;41.090;-8.118;2023-05-10T04:52:01;21.90;80.00
74368;DHT22;64991;41.090;-8.118;2023-05-10T04:57:04;21.80;80.00
74368;DHT22;64991;41.090;-8.118;2023-05-10T05:02:08;21.80;79.70
74368;DHT22;64991;41.090;-8.118;2023-05-10T05:07:12;21.90;79.70
74368;DHT22;64991;41.090;-8.118;2023-05-10T05:12:16;21.80;79.50
74368;DHT22;64991;41.090;-8.118;2023-05-10T05:17:20;21.80;80.00
74368;DHT22;64991;41.090;-8.118;2023-05-10T05:22:24;21.80;80.10
74368;DHT22;64991;41.090;-8.118;2023-05-10T05:27:29;21.80;79.60
74368;DHT22;64991;41.090;-8.118;2023-05-10T05:32:33;21.80;79.60
74368;DHT22;64991;41.090;-8.118;2023-05-10T05:37:38;21.80;79.40
74368;DHT22;64991;41.090;-8.118;2023-05-10T05:42:41;21.70;79.40
74368;DHT22;64991;41.090;-8.118;2023-05-10T05:47:45;21.70;79.50
74368;DHT22;64991;41.090;-8.118;2023-05-10T05:52:50;21.80;79.20
74368;DHT22;64991;41.090;-8.118;2023-05-10T05:57:54;21.70;79.50
74368;DHT22;64991;41.090;-8.118;2023-05-10T06:02:57;21.70;79.40
74368;DHT22;64991;41.090;-8.118;2023-05-10T06:08:02;21.70;79.20
74368;DHT22;64991;41.090;-8.118;2023-05-10T06:13:06;21.70;79.50
74368;DHT22;64991;41.090;-8.118;2023-05-10T06:18:10;21.70;79.50
74368;DHT22;64991;41.090;-8.118;2023-05-10T06:23:15;21.80;79.50
74368;DHT22;64991;41.090;-8.118;2023-05-10T06:28:18;21.70;79.10
74368;DHT22;64991;41.090;-8.118;2023-05-10T06:33:22;21.70;79.40
74368;DHT22;64991;41.090;-8.118;2023-05-10T06:38:27;21.70;79.30
74368;DHT22;64991;41.090;-8.118;2023-05-10T06:43:30;21.70;79.10
74368;DHT22;64991;41.090;-8.118;2023-05-10T06:48:34;21.80;79.20
74368;DHT22;64991;41.090;-8.118;2023-05-10T06:53:39;21.70;79.20
74368;DHT22;64991;41.090;-8.118;2023-05-10T06:58:43;21.80;79.00
74368;DHT22;64991;41.090;-8.118;2023-05-10T07:03:46;21.80;78.90
74368;DHT22;64991;41.090;-8.118;2023-05-10T07:08:51;21.70;78.80
74368;DHT22;64991;41.090;-8.118;2023-05-10T07:13:54;21.80;78.90
74368;DHT22;64991;41.090;-8.118;2023-05-10T07:18:58;21.80;78.70
74368;DHT22;64991;41.090;-8.118;2023-05-10T07:24:03;21.80;78.70
74368;DHT22;64991;41.090;-8.118;2023-05-10T07:29:07;21.70;78.80
74368;DHT22;64991;41.090;-8.118;2023-05-10T07:34:10;21.70;78.70
74368;DHT22;64991;41.090;-8.118;2023-05-10T07:39:15;21.70;78.70
74368;DHT22;64991;41.090;-8.118;2023-05-10T07:44:27;21.80;78.80
74368;DHT22;64991;41.090;-8.118;2023-05-10T07:49:31;21.70;78.80
74368;DHT22;64991;41.090;-8.118;2023-05-10T07:54:36;21.80;78.40
74368;DHT22;64991;41.090;-8.118;2023-05-10T07:59:40;21.80;78.50
74368;DHT22;64991;41.090;-8.118;2023-05-10T08:04:44;21.80;78.40
74368;DHT22;64991;41.090;-8.118;2023-05-10T08:09:49;21.80;78.70
74368;DHT22;64991;41.090;-8.118;2023-05-10T08:14:53;21.90;78.80
74368;DHT22;64991;41.090;-8.118;2023-05-10T08:19:56;21.80;78.30
74368;DHT22;64991;41.090;-8.118;2023-05-10T08:25:01;21.80;78.20
74368;DHT22;64991;41.090;-8.118;2023-05-10T08:30:05;21.90;78.70
74368;DHT22;64991;41.090;-8.118;2023-05-10T08:35:09;21.80;78.60
74368;DHT22;64991;41.090;-8.118;2023-05-10T08:40:14;21.80;78.30
74368;DHT22;64991;41.090;-8.118;2023-05-10T08:45:18;21.80;78.40
74368;DHT22;64991;41.090;-8.118;2023-05-10T08:50:23;21.90;78.30
74368;DHT22;64991;41.090;-8.118;2023-05-10T08:55:29;21.80;78.30
74368;DHT22;64991;41.090;-8.118;2023-05-10T09:00:33;21.80;78.30
74368;DHT22;64991;41.090;-8.118;2023-05-10T09:05:37;21.80;78.10
74368;DHT22;64991;41.090;-8.118;2023-05-10T09:10:42;21.80;78.00
74368;DHT22;64991;41.090;-8.118;2023-05-10T09:15:45;21.80;78.20
74368;DHT22;64991;41.090;-8.118;2023-05-10T09:20:50;21.80;77.80
74368;DHT22;64991;41.090;-8.118;2023-05-10T09:26:02;21.80;77.90
74368;DHT22;64991;41.090;-8.118;2023-05-10T09:31:07;21.90;77.60
74368;DHT22;64991;41.090;-8.118;2023-05-10T09:36:10;21.80;77.60
74368;DHT22;64991;41.090;-8.118;2023-05-10T09:41:19;21.90;77.50
74368;DHT22;64991;41.090;-8.118;2023-05-10T09:46:24;21.90;77.10
74368;DHT22;64991;41.090;-8.118;2023-05-10T09:51:27;21.90;77.50
74368;DHT22;64991;41.090;-8.118;2023-05-10T09:56:36;21.80;77.30
74368;DHT22;64991;41.090;-8.118;2023-05-10T10:01:41;21.90;77.30
74368;DHT22;64991;41.090;-8.118;2023-05-10T10:06:45;21.80;77.20
74368;DHT22;64991;41.090;-8.118;2023-05-10T10:11:50;21.80;77.10
74368;DHT22;64991;41.090;-8.118;2023-05-10T10:16:54;21.90;77.40
74368;DHT22;64991;41.090;-8.118;2023-05-10T10:22:08;21.90;77.20
74368;DHT22;64991;41.090;-8.118;2023-05-10T10:27:20;21.90;77.10
74368;DHT22;64991;41.090;-8.118;2023-05-10T10:32:27;21.90;77.00
74368;DHT22;64991;41.090;-8.118;2023-05-10T10:37:42;21.90;77.10
74368;DHT22;64991;41.090;-8.118;2023-05-10T10:42:48;21.80;77.00
74368;DHT22;64991;41.090;-8.118;2023-05-10T10:53:25;21.90;76.90
74368;DHT22;64991;41.090;-8.118;2023-05-10T10:58:31;21.90;76.70
74368;DHT22;64991;41.090;-8.118;2023-05-10T11:03:36;21.90;76.70
74368;DHT22;64991;41.090;-8.118;2023-05-10T11:08:42;21.90;76.90
74368;DHT22;64991;41.090;-8.118;2023-05-10T11:13:48;21.90;77.00
74368;DHT22;64991;41.090;-8.118;2023-05-10T11:18:53;21.90;76.80
74368;DHT22;64991;41.090;-8.118;2023-05-10T11:23:57;21.90;76.90
74368;DHT22;64991;41.090;-8.118;2023-05-10T11:29:03;21.90;77.00
74368;DHT22;64991;41.090;-8.118;2023-05-10T11:34:06;21.90;76.80
74368;DHT22;64991;41.090;-8.118;2023-05-10T11:39:10;21.90;76.80
74368;DHT22;64991;41.090;-8.118;2023-05-10T11:44:15;21.90;77.10
74368;DHT22;64991;41.090;-8.118;2023-05-10T11:49:18;21.80;77.10
74368;DHT22;64991;41.090;-8.118;2023-05-10T11:54:22;21.90;77.10
74368;DHT22;64991;41.090;-8.118;2023-05-10T11:59:27;21.90;77.10
74368;DHT22;64991;41.090;-8.118;2023-05-10T12:04:31;21.90;77.20
74368;DHT22;64991;41.090;-8.118;2023-05-10T12:09:34;22.00;76.90
74368;DHT22;64991;41.090;-8.118;2023-05-10T12:14:48;21.90;77.30
74368;DHT22;64991;41.090;-8.118;2023-05-10T12:19:53;21.90;76.80
74368;DHT22;64991;41.090;-8.118;2023-05-10T12:24:58;21.90;77.10
74368;DHT22;64991;41.090;-8.118;2023-05-10T12:30:03;21.90;77.60
74368;DHT22;64991;41.090;-8.118;2023-05-10T12:35:08;21.90;77.60
74368;DHT22;64991;41.090;-8.118;2023-05-10T12:40:11;21.90;77.30
74368;DHT22;64991;41.090;-8.118;2023-05-10T12:45:17;22.00;77.50
74368;DHT22;64991;41.090;-8.118;2023-05-10T12:50:21;22.00;77.30
74368;DHT22;64991;41.090;-8.118;2023-05-10T12:55:26;21.90;77.20
74368;DHT22;64991;41.090;-8.118;2023-05-10T13:00:31;22.00;77.20
74368;DHT22;64991;41.090;-8.118;2023-05-10T13:05:34;21.90;77.30
74368;DHT22;64991;41.090;-8.118;2023-05-10T13:10:37;21.90;77.60
74368;DHT22;64991;41.090;-8.118;2023-05-10T13:15:43;22.00;77.20
74368;DHT22;64991;41.090;-8.118;2023-05-10T13:20:46;21.90;77.50
74368;DHT22;64991;41.090;-8.118;2023-05-10T13:25:51;21.90;77.80
74368;DHT22;64991;41.090;-8.118;2023-05-10T13:30:56;21.90;77.60
74368;DHT22;64991;41.090;-8.118;2023-05-10T13:36:01;22.00;77.60
74368;DHT22;64991;41.090;-8.118;2023-05-10T13:41:05;21.90;77.60
74368;DHT22;64991;41.090;-8.118;2023-05-10T13:46:10;21.90;77.70
74368;DHT22;64991;41.090;-8.118;2023-05-10T13:51:13;22.00;78.00
74368;DHT22;64991;41.090;-8.118;2023-05-10T13:56:17;21.80;78.10
74368;DHT22;64991;41.090;-8.118;2023-05-10T14:01:22;21.90;77.80
74368;DHT22;64991;41.090;-8.118;2023-05-10T14:06:25;21.90;77.90
74368;DHT22;64991;41.090;-8.118;2023-05-10T14:11:29;21.90;77.90
74368;DHT22;64991;41.090;-8.118;2023-05-10T14:16:34;21.90;77.90
74368;DHT22;64991;41.090;-8.118;2023-05-10T14:21:38;21.90;77.80
74368;DHT22;64991;41.090;-8.118;2023-05-10T14:26:41;22.00;77.80
74368;DHT22;64991;41.090;-8.118;2023-05-10T14:31:46;22.00;78.10
74368;DHT22;64991;41.090;-8.118;2023-05-10T14:36:50;21.90;77.90
74368;DHT22;64991;41.090;-8.118;2023-05-10T14:41:53;21.90;78.00
74368;DHT22;64991;41.090;-8.118;2023-05-10T14:46:58;22.00;77.90
74368;DHT22;64991;41.090;-8.118;2023-05-10T14:52:02;21.90;77.90
74368;DHT22;64991;41.090;-8.118;2023-05-10T14:57:06;21.90;78.00
74368;DHT22;64991;41.090;-8.118;2023-05-10T15:02:11;22.00;77.90
74368;DHT22;64991;41.090;-8.118;2023-05-10T15:07:15;22.00;78.00
74368;DHT22;64991;41.090;-8.118;2023-05-10T15:12:20;21.90;77.90
74368;DHT22;64991;41.090;-8.118;2023-05-10T15:17:25;21.90;78.10
74368;DHT22;64991;41.090;-8.118;2023-05-10T15:22:28;21.90;78.20
74368;DHT22;64991;41.090;-8.118;2023-05-10T15:27:35;21.90;78.40
74368;DHT22;64991;41.090;-8.118;2023-05-10T15:32:40;21.90;78.40
74368;DHT22;64991;41.090;-8.118;2023-05-10T15:37:45;22.00;78.70
74368;DHT22;64991;41.090;-8.118;2023-05-10T15:42:49;21.80;78.50
74368;DHT22;64991;41.090;-8.118;2023-05-10T15:47:54;21.90;78.40
74368;DHT22;64991;41.090;-8.118;2023-05-10T15:52:58;22.00;78.80
74368;DHT22;64991;41.090;-8.118;2023-05-10T15:58:02;22.00;79.00
74368;DHT22;64991;41.090;-8.118;2023-05-10T16:03:07;21.90;78.80
74368;DHT22;64991;41.090;-8.118;2023-05-10T16:08:10;21.90;79.00
74368;DHT22;64991;41.090;-8.118;2023-05-10T16:13:15;21.90;78.90
74368;DHT22;64991;41.090;-8.118;2023-05-10T16:18:20;22.00;78.80
74368;DHT22;64991;41.090;-8.118;2023-05-10T16:23:24;21.90;79.10
74368;DHT22;64991;41.090;-8.118;2023-05-10T16:28:28;22.00;78.90
74368;DHT22;64991;41.090;-8.118;2023-05-10T16:33:34;21.90;79.10
74368;DHT22;64991;41.090;-8.118;2023-05-10T16:38:38;21.90;79.20
74368;DHT22;64991;41.090;-8.118;2023-05-10T16:43:42;21.90;79.10
74368;DHT22;64991;41.090;-8.118;2023-05-10T16:48:47;21.90;79.20
74368;DHT22;64991;41.090;-8.118;2023-05-10T16:53:50;22.00;78.90
74368;DHT22;64991;41.090;-8.118;2023-05-10T16:58:54;22.00;79.00
74368;DHT22;64991;41.090;-8.118;2023-05-10T17:03:59;22.00;79.20
74368;DHT22;64991;41.090;-8.118;2023-05-10T17:09:02;21.90;79.00
74368;DHT22;64991;41.090;-8.118;2023-05-10T17:14:08;21.90;78.90
74368;DHT22;64991;41.090;-8.118;2023-05-10T17:19:13;21.90;79.10
74368;DHT22;64991;41.090;-8.118;2023-05-10T17:24:16;21.90;79.20
74368;DHT22;64991;41.090;-8.118;2023-05-10T17:29:20;22.00;79.20
74368;DHT22;64991;41.090;-8.118;2023-05-10T17:34:25;21.90;79.10
74368;DHT22;64991;41.090;-8.118;2023-05-10T17:39:28;22.00;79.30
74368;DHT22;64991;41.090;-8.118;2023-05-10T17:44:32;21.90;79.40
74368;DHT22;64991;41.090;-8.118;2023-05-10T17:49:37;21.90;79.30
74368;DHT22;64991;41.090;-8.118;2023-05-10T17:54:41;22.00;79.10
74368;DHT22;64991;41.090;-8.118;2023-05-10T17:59:45;22.00;79.30
74368;DHT22;64991;41.090;-8.118;2023-05-10T18:04:49;22.00;79.60
74368;DHT22;64991;41.090;-8.118;2023-05-10T18:09:53;22.00;79.40
74368;DHT22;64991;41.090;-8.118;2023-05-10T18:14:57;22.00;79.10
74368;DHT22;64991;41.090;-8.118;2023-05-10T18:20:02;22.00;79.30
74368;DHT22;64991;41.090;-8.118;2023-05-10T18:25:07;22.00;79.40
74368;DHT22;64991;41.090;-8.118;2023-05-10T18:30:11;22.10;79.30
74368;DHT22;64991;41.090;-8.118;2023-05-10T18:35:17;22.00;79.40
74368;DHT22;64991;41.090;-8.118;2023-05-10T18:40:21;22.00;79.50
74368;DHT22;64991;41.090;-8.118;2023-05-10T18:45:25;22.00;79.50
74368;DHT22;64991;41.090;-8.118;2023-05-10T18:50:29;22.00;79.40
74368;DHT22;64991;41.090;-8.118;2023-05-10T18:55:33;22.00;79.50
74368;DHT22;64991;41.090;-8.118;2023-05-10T19:00:36;21.90;79.50
74368;DHT22;64991;41.090;-8.118;2023-05-10T19:05:41;22.00;79.50
74368;DHT22;64991;41.090;-8.118;2023-05-10T19:10:45;22.00;79.50
74368;DHT22;64991;41.090;-8.118;2023-05-10T19:15:58;21.90;79.50
74368;DHT22;64991;41.090;-8.118;2023-05-10T19:21:07;22.00;79.70
74368;DHT22;64991;41.090;-8.118;2023-05-10T19:26:11;21.90;79.60
74368;DHT22;64991;41.090;-8.118;2023-05-10T19:31:15;22.00;79.60
74368;DHT22;64991;41.090;-8.118;2023-05-10T19:36:20;22.00;79.50
74368;DHT22;64991;41.090;-8.118;2023-05-10T19:41:23;22.00;79.30
74368;DHT22;64991;41.090;-8.118;2023-05-10T19:46:27;22.10;79.20
74368;DHT22;64991;41.090;-8.118;2023-05-10T19:51:33;22.00;79.30
74368;DHT22;64991;41.090;-8.118;2023-05-10T19:56:37;22.00;79.10
74368;DHT22;64991;41.090;-8.118;2023-05-10T20:01:40;22.00;79.10
74368;DHT22;64991;41.090;-8.118;2023-05-10T20:06:45;22.00;79.00
74368;DHT22;64991;41.090;-8.118;2023-05-10T20:11:48;22.00;78.70
74368;DHT22;64991;41.090;-8.118;2023-05-10T20:16:52;22.00;79.00
74368;DHT22;64991;41.090;-8.118;2023-05-10T20:21:57;22.00;79.00
74368;DHT22;64991;41.090;-8.118;2023-05-10T20:27:00;22.00;78.80
74368;DHT22;64991;41.090;-8.118;2023-05-10T20:32:05;21.90;78.70
74368;DHT22;64991;41.090;-8.118;2023-05-10T20:37:10;21.90;78.80
74368;DHT22;64991;41.090;-8.118;2023-05-10T20:42:14;21.90;78.70
74368;DHT22;64991;41.090;-8.118;2023-05-10T20:47:17;22.00;79.00
74368;DHT22;64991;41.090;-8.118;2023-05-10T20:52:22;22.00;78.90
74368;DHT22;64991;41.090;-8.118;2023-05-10T20:57:26;22.00;78.90
74368;DHT22;64991;41.090;-8.118;2023-05-10T21:02:29;22.00;78.90
74368;DHT22;64991;41.090;-8.118;2023-05-10T21:07:34;22.00;78.50
74368;DHT22;64991;41.090;-8.118;2023-05-10T21:12:38;22.00;78.50
74368;DHT22;64991;41.090;-8.118;2023-05-10T21:17:41;21.90;78.70
74368;DHT22;64991;41.090;-8.118;2023-05-10T21:22:46;22.00;78.50
74368;DHT22;64991;41.090;-8.118;2023-05-10T21:27:50;22.00;78.70
74368;DHT22;64991;41.090;-8.118;2023-05-10T21:32:53;22.00;78.30
74368;DHT22;64991;41.090;-8.118;2023-05-10T21:38:02;22.00;78.60
74368;DHT22;64991;41.090;-8.118;2023-05-10T21:43:05;21.90;78.70
74368;DHT22;64991;41.090;-8.118;2023-05-10T21:48:09;22.00;78.60
74368;DHT22;64991;41.090;-8.118;2023-05-10T21:53:13;21.90;78.30
74368;DHT22;64991;41.090;-8.118;2023-05-10T21:58:17;22.00;78.30
74368;DHT22;64991;41.090;-8.118;2023-05-10T22:03:21;21.90;78.40
74368;DHT22;64991;41.090;-8.118;2023-05-10T22:08:26;21.90;78.30
74368;DHT22;64991;41.090;-8.118;2023-05-10T22:13:29;21.90;78.30
74368;DHT22;64991;41.090;-8.118;2023-05-10T22:18:33;21.90;78.30
74368;DHT22;64991;41.090;-8.118;2023-05-10T22:23:38;21.90;78.30
74368;DHT22;64991;41.090;-8.118;2023-05-10T22:28:41;21.90;78.20
74368;DHT22;64991;41.090;-8.118;2023-05-10T22:33:45;21.90;78.30
74368;DHT22;64991;41.090;-8.118;2023-05-10T22:38:50;21.90;78.00
74368;DHT22;64991;41.090;-8.118;2023-05-10T22:43:54;21.90;78.30
74368;DHT22;64991;41.090;-8.118;2023-05-10T22:48:57;21.90;78.00
74368;DHT22;64991;41.090;-8.118;2023-05-10T22:54:02;21.90;78.00
74368;DHT22;64991;41.090;-8.118;2023-05-10T22:59:07;21.90;78.00
74368;DHT22;64991;41.090;-8.118;2023-05-10T23:04:11;21.80;78.00
74368;DHT22;64991;41.090;-8.118;2023-05-10T23:09:16;21.90;78.00
74368;DHT22;64991;41.090;-8.118;2023-05-10T23:14:19;21.80;78.00
74368;DHT22;64991;41.090;-8.118;2023-05-10T23:19:23;21.90;77.90
74368;DHT22;64991;41.090;-8.118;2023-05-10T23:24:28;21.90;77.70
74368;DHT22;64991;41.090;-8.118;2023-05-10T23:29:31;21.90;77.90
74368;DHT22;64991;41.090;-8.118;2023-05-10T23:34:35;21.90;77.90
74368;DHT22;64991;41.090;-8.118;2023-05-10T23:39:40;21.90;78.10
74368;DHT22;64991;41.090;-8.118;2023-05-10T23:44:44;21.90;77.70
74368;DHT22;64991;41.090;-8.118;2023-05-10T23:49:48;21.80;77.90
74368;DHT22;64991;41.090;-8.118;2023-05-10T23:54:53;21.80;77.80
74368;DHT22;64991;41.090;-8.118;2023-05-10T23:59:57;21.90;77.70
